Time;durP1;ratioP1;P1;durP2;ratioP2;P2;SDS_P1;SDS_P2;PMS_P1;PMS_P2;Temp;Humidity;BMP_temperature;BMP_pressure;BME280_temperature;BME280_humidity;BME280_pressure;Samples;Min_cycle;Max_cycle;Signal;HPM_P1;HPM_P2
2021/05/13 00:01:05;;;;;;;13.63;10.32;;;13.40;73.70;;;;;;4947815;29;20107;-68
2021/05/13 00:03:32;;;;;;;15.02;10.48;;;13.40;73.70;;;;;;4947847;29;20047;-68
2021/05/13 00:05:57;;;;;;;14.75;10.35;;;13.40;73.60;;;;;;4949744;29;20028;-68
2021/05/13 00:08:23;;;;;;;13.95;10.40;;;13.40;73.80;;;;;;4948268;29;20042;-68
2021/05/13 00:10:48;;;;;;;15.25;10.98;;;13.30;73.60;;;;;;4931154;29;20046;-68
2021/05/13 00:13:14;;;;;;;17.75;10.50;;;13.40;73.70;;;;;;4947716;29;20039;-68
2021/05/13 00:15:41;;;;;;;12.90;9.88;;;13.30;73.80;;;;;;4930604;29;20044;-68
2021/05/13 00:18:07;;;;;;;17.08;10.43;;;13.30;73.70;;;;;;4949491;29;20090;-68
2021/05/13 00:20:34;;;;;;;13.95;10.43;;;13.40;73.70;;;;;;4948033;29;20055;-68
2021/05/13 00:23:00;;;;;;;15.32;10.23;;;13.40;73.60;;;;;;4947858;29;20050;-68
2021/05/13 00:25:25;;;;;;;16.02;10.57;;;13.40;73.60;;;;;;4930820;29;20051;-68
2021/05/13 00:27:51;;;;;;;16.27;10.45;;;13.40;73.60;;;;;;4947421;29;20087;-68
2021/05/13 00:30:17;;;;;;;14.85;10.35;;;13.30;73.60;;;;;;4948968;29;20140;-68
2021/05/13 00:32:43;;;;;;;17.20;10.82;;;13.40;73.70;;;;;;4947446;29;20047;-68
2021/05/13 00:35:13;;;;;;;16.45;10.27;;;13.30;73.60;;;;;;4947658;29;20050;-68
2021/05/13 00:37:38;;;;;;;14.35;10.15;;;13.30;73.70;;;;;;4947762;29;20092;-68
2021/05/13 00:40:05;;;;;;;16.60;9.75;;;13.30;73.70;;;;;;4947177;29;20060;-68
2021/05/13 00:42:31;;;;;;;14.95;10.60;;;13.30;73.70;;;;;;4947360;29;20339;-68
2021/05/13 00:44:57;;;;;;;14.55;9.90;;;13.30;73.90;;;;;;4948808;29;20091;-68
2021/05/13 00:47:26;;;;;;;15.63;9.73;;;13.30;73.80;;;;;;4947383;29;20040;-68
2021/05/13 00:49:51;;;;;;;13.93;9.52;;;13.20;73.60;;;;;;4947194;29;20046;-68
2021/05/13 00:52:21;;;;;;;18.58;10.20;;;13.30;73.50;;;;;;4947080;29;20043;-68
2021/05/13 00:54:46;;;;;;;13.38;9.75;;;13.20;73.50;;;;;;4945872;29;20106;-68
2021/05/13 00:57:12;;;;;;;13.93;9.80;;;13.30;73.50;;;;;;4931982;29;20303;-68
2021/05/13 00:59:40;;;;;;;14.82;10.20;;;13.30;73.50;;;;;;4947098;29;20055;-67
2021/05/13 01:02:06;;;;;;;13.63;9.57;;;13.20;73.60;;;;;;4946789;29;20063;-68
2021/05/13 01:04:31;;;;;;;13.82;9.40;;;13.30;73.50;;;;;;4947044;29;20331;-68
2021/05/13 01:06:57;;;;;;;13.05;8.85;;;13.30;73.60;;;;;;4946926;29;20310;-68
2021/05/13 01:09:24;;;;;;;13.02;9.00;;;13.20;73.50;;;;;;4929890;29;20035;-67
2021/05/13 01:12:32;;;;;;;18.10;9.32;;;13.20;73.60;;;;;;4948283;29;20188;-68
2021/05/13 01:14:44;;;;;;;11.82;8.45;;;13.30;73.60;;;;;;4936450;29;20058;-68
2021/05/13 01:19:43;;;;;;;12.70;8.68;;;13.30;73.70;;;;;;4946636;29;20042;-68
2021/05/13 01:22:11;;;;;;;11.80;8.35;;;13.20;73.60;;;;;;4946717;29;20107;-68
2021/05/13 01:24:37;;;;;;;12.13;8.63;;;13.20;73.60;;;;;;4946942;29;20090;-68
2021/05/13 01:27:02;;;;;;;14.90;9.30;;;13.20;73.60;;;;;;4947992;29;20219;-68
2021/05/13 01:29:28;;;;;;;14.10;8.80;;;13.20;73.60;;;;;;4946811;29;20095;-68
2021/05/13 01:31:54;;;;;;;12.55;8.82;;;13.20;73.60;;;;;;4946745;29;20055;-68
2021/05/13 01:34:19;;;;;;;10.93;7.90;;;13.20;73.70;;;;;;4946335;29;20260;-68
2021/05/13 01:36:45;;;;;;;10.25;7.88;;;13.20;73.70;;;;;;4946231;29;20051;-67
2021/05/13 01:39:11;;;;;;;10.70;7.57;;;13.20;73.50;;;;;;4947997;29;20075;-68
2021/05/13 01:41:36;;;;;;;10.90;7.53;;;13.20;73.50;;;;;;4946843;29;20055;-68
2021/05/13 01:44:02;;;;;;;12.07;7.40;;;13.10;73.30;;;;;;4946193;29;20054;-69
2021/05/13 01:46:28;;;;;;;12.60;8.23;;;13.20;73.60;;;;;;4929403;29;20087;-68
2021/05/13 01:48:53;;;;;;;10.75;7.85;;;13.20;73.50;;;;;;4945896;29;20040;-68
2021/05/13 01:51:19;;;;;;;10.60;7.47;;;13.20;73.40;;;;;;4946227;29;20031;-67
2021/05/13 01:53:45;;;;;;;11.77;7.85;;;13.20;73.60;;;;;;4947395;29;20274;-68
2021/05/13 01:56:11;;;;;;;11.27;7.93;;;13.20;73.60;;;;;;4945712;29;20338;-67
2021/05/13 01:58:37;;;;;;;11.30;7.82;;;13.20;73.60;;;;;;4946171;29;20039;-67
2021/05/13 02:01:03;;;;;;;11.10;7.78;;;13.20;73.50;;;;;;4945641;29;20043;-67
2021/05/13 02:03:29;;;;;;;19.17;8.32;;;13.20;73.50;;;;;;4946162;29;20035;-67
2021/05/13 02:05:54;;;;;;;12.52;8.32;;;13.20;73.40;;;;;;4947377;29;20262;-69
2021/05/13 02:08:20;;;;;;;11.90;7.97;;;13.10;73.50;;;;;;4946083;29;20040;-68
2021/05/13 02:10:46;;;;;;;14.80;7.85;;;13.20;73.60;;;;;;4945804;29;20043;-68
2021/05/13 02:13:11;;;;;;;15.20;8.43;;;13.20;73.70;;;;;;4945674;29;20127;-68
2021/05/13 02:15:37;;;;;;;11.43;7.78;;;13.20;73.70;;;;;;4945839;29;26029;-68
2021/05/13 02:18:03;;;;;;;10.52;7.90;;;13.20;73.60;;;;;;4947263;29;20223;-69
2021/05/13 02:20:28;;;;;;;11.48;7.90;;;13.20;73.70;;;;;;4946055;29;20059;-69
2021/05/13 02:22:55;;;;;;;12.05;8.43;;;13.20;73.70;;;;;;4945733;29;20040;-69
2021/05/13 02:25:21;;;;;;;12.60;8.05;;;13.20;73.80;;;;;;4945712;29;20090;-69
2021/05/13 02:27:46;;;;;;;11.30;7.97;;;13.20;73.60;;;;;;4945661;29;20060;-68
2021/05/13 02:30:13;;;;;;;12.85;7.75;;;13.20;73.50;;;;;;4947201;29;20038;-69
2021/05/13 02:32:38;;;;;;;11.38;7.95;;;13.20;73.50;;;;;;4928923;29;20044;-69
2021/05/13 02:35:08;;;;;;;11.35;7.40;;;13.20;73.50;;;;;;4945602;29;20331;-69
2021/05/13 02:37:33;;;;;;;9.93;7.65;;;13.20;73.50;;;;;;4945310;29;20035;-69
2021/05/13 02:39:59;;;;;;;13.18;8.50;;;13.20;73.70;;;;;;4945457;29;20054;-68
2021/05/13 02:42:24;;;;;;;10.70;8.15;;;13.20;73.50;;;;;;4945488;29;20067;-68
2021/05/13 02:44:50;;;;;;;11.80;8.07;;;13.10;73.60;;;;;;4946985;29;20038;-68
2021/05/13 02:47:15;;;;;;;11.63;7.68;;;13.10;73.60;;;;;;4945341;29;20086;-69
2021/05/13 02:49:41;;;;;;;11.52;8.25;;;13.10;73.60;;;;;;4945058;29;20046;-69
2021/05/13 02:52:06;;;;;;;11.80;7.85;;;13.20;73.70;;;;;;4945347;29;20382;-69
2021/05/13 02:54:32;;;;;;;11.32;8.15;;;13.10;73.70;;;;;;4945024;29;20035;-68
2021/05/13 02:56:57;;;;;;;11.65;8.07;;;13.10;73.80;;;;;;4946674;29;20032;-68
2021/05/13 02:59:32;;;;;;;12.05;8.38;;;13.10;73.70;;;;;;4912594;29;20362;-68
2021/05/13 03:01:57;;;;;;;11.30;8.13;;;13.10;73.60;;;;;;4945050;29;20044;-68
2021/05/13 03:04:23;;;;;;;11.18;7.53;;;13.10;73.60;;;;;;4944887;29;20028;-68
2021/05/13 03:06:48;;;;;;;10.90;8.40;;;13.10;73.60;;;;;;4945226;29;20046;-68
2021/05/13 03:09:17;;;;;;;12.88;8.48;;;13.10;73.50;;;;;;4946831;29;20207;-68
2021/05/13 03:11:42;;;;;;;11.63;8.30;;;13.00;73.60;;;;;;4944924;29;20047;-68
2021/05/13 03:14:09;;;;;;;13.02;7.95;;;13.00;73.60;;;;;;4945184;29;20212;-68
2021/05/13 03:16:35;;;;;;;12.15;8.10;;;13.00;73.60;;;;;;4944942;29;20035;-68
2021/05/13 03:19:00;;;;;;;13.00;8.00;;;13.00;73.70;;;;;;4948305;29;20036;-68
2021/05/13 03:24:01;;;;;;;12.68;8.70;;;13.00;73.70;;;;;;4950583;29;20027;-68
2021/05/13 03:27:13;;;;;;;11.20;8.32;;;13.00;73.70;;;;;;4949173;29;20043;-68
2021/05/13 03:29:12;;;;;;;13.13;8.07;;;13.00;73.80;;;;;;4935264;29;20040;-68
2021/05/13 03:31:38;;;;;;;12.32;7.85;;;13.00;73.70;;;;;;4948601;29;20232;-68
2021/05/13 03:34:03;;;;;;;12.30;8.00;;;13.00;73.80;;;;;;4948403;29;20233;-68
2021/05/13 03:36:32;;;;;;;11.98;8.27;;;13.00;73.60;;;;;;4948498;29;20222;-68
2021/05/13 03:39:08;;;;;;;11.63;7.80;;;12.90;73.60;;;;;;4950318;29;20089;-68
2021/05/13 03:41:33;;;;;;;12.93;8.13;;;12.90;73.50;;;;;;4948859;29;20043;-68
2021/05/13 03:43:59;;;;;;;12.45;8.57;;;13.00;73.50;;;;;;4948629;29;20043;-68
2021/05/13 03:46:24;;;;;;;10.95;7.93;;;12.90;73.60;;;;;;4931565;29;20042;-68
2021/05/13 03:48:50;;;;;;;10.02;7.55;;;12.90;73.50;;;;;;4948295;29;20062;-68
2021/05/13 03:51:16;;;;;;;10.30;7.43;;;12.90;73.50;;;;;;4950078;29;20032;-68
2021/05/13 03:53:42;;;;;;;10.23;6.93;;;12.90;73.60;;;;;;4948095;29;20070;-68
2021/05/13 03:56:07;;;;;;;11.80;7.38;;;12.90;73.40;;;;;;4948483;29;20035;-68
2021/05/13 03:58:38;;;;;;;11.00;7.90;;;12.90;73.50;;;;;;4948277;29;20032;-68
2021/05/13 04:01:17;;;;;;;13.07;7.57;;;12.90;73.60;;;;;;4931762;29;20032;-68
2021/05/13 04:03:43;;;;;;;14.40;8.27;;;12.90;73.50;;;;;;4948152;29;20052;-68
2021/05/13 04:06:08;;;;;;;12.63;7.93;;;12.90;73.60;;;;;;4949802;29;20027;-68
2021/05/13 04:08:34;;;;;;;9.90;7.45;;;12.90;73.50;;;;;;4948358;29;20039;-68
2021/05/13 04:10:59;;;;;;;9.25;6.75;;;12.90;73.60;;;;;;4948062;29;20460;-68
2021/05/13 04:13:26;;;;;;;14.15;7.65;;;12.90;73.60;;;;;;4947779;29;20080;-68
2021/05/13 04:15:52;;;;;;;11.45;7.38;;;12.90;73.50;;;;;;4947745;29;20039;-68
2021/05/13 04:18:18;;;;;;;10.68;7.03;;;12.90;73.70;;;;;;4948014;29;20064;-67
2021/05/13 04:20:44;;;;;;;10.48;7.10;;;12.80;73.60;;;;;;4949206;29;20023;-68
2021/05/13 04:23:09;;;;;;;12.32;6.88;;;12.80;73.60;;;;;;4947527;29;20044;-68
2021/05/13 04:25:35;;;;;;;10.93;6.72;;;12.90;73.60;;;;;;4947593;29;20223;-68
2021/05/13 04:28:01;;;;;;;11.30;7.00;;;12.90;73.50;;;;;;4947388;29;20027;-68
2021/05/13 04:30:27;;;;;;;10.05;6.80;;;12.90;73.50;;;;;;4947418;29;20331;-68
2021/05/13 04:32:52;;;;;;;10.13;7.30;;;12.90;73.60;;;;;;4949363;29;20374;-68
2021/05/13 04:35:18;;;;;;;9.95;6.50;;;12.90;73.60;;;;;;4947762;29;20027;-68
2021/05/13 04:37:43;;;;;;;11.27;6.70;;;12.90;73.60;;;;;;4947423;29;20132;-68
2021/05/13 04:40:10;;;;;;;10.75;6.90;;;12.90;73.70;;;;;;4947562;29;20047;-68
2021/05/13 04:42:35;;;;;;;11.95;6.88;;;12.90;73.70;;;;;;4947088;29;20083;-68
2021/05/13 04:45:01;;;;;;;9.48;6.53;;;12.90;73.70;;;;;;4949177;29;20042;-68
2021/05/13 04:47:52;;;;;;;9.75;6.43;;;12.90;73.60;;;;;;4947643;29;20035;-68
2021/05/13 04:50:18;;;;;;;8.77;6.20;;;12.90;73.60;;;;;;4947685;29;20110;-68
2021/05/13 04:52:44;;;;;;;9.55;7.07;;;12.90;73.70;;;;;;4947279;29;20339;-68
2021/05/13 04:55:10;;;;;;;10.20;6.75;;;12.90;73.80;;;;;;4947080;29;20365;-68
2021/05/13 04:57:36;;;;;;;8.75;7.03;;;12.90;73.90;;;;;;4947402;29;20039;-68
2021/05/13 05:00:06;;;;;;;11.88;6.78;;;12.90;73.70;;;;;;4948552;29;20058;-68
2021/05/13 05:02:31;;;;;;;9.57;7.05;;;12.90;73.90;;;;;;4947224;29;20040;-68
2021/05/13 05:04:57;;;;;;;9.65;6.28;;;12.90;73.80;;;;;;4946804;29;20107;-68
2021/05/13 05:07:22;;;;;;;13.23;7.10;;;12.90;73.80;;;;;;4947067;29;20354;-68
2021/05/13 05:09:48;;;;;;;12.75;6.43;;;12.90;73.90;;;;;;4946642;29;20043;-68
2021/05/13 05:12:14;;;;;;;11.52;7.22;;;12.90;74.00;;;;;;4948347;29;20260;-69
2021/05/13 05:14:40;;;;;;;11.68;6.53;;;12.90;74.10;;;;;;4947062;29;20044;-70
2021/05/13 05:17:05;;;;;;;10.07;6.47;;;12.90;74.00;;;;;;4947057;29;20087;-67
2021/05/13 05:19:31;;;;;;;12.77;7.13;;;13.00;73.80;;;;;;4946741;29;20223;-66
2021/05/13 05:21:56;;;;;;;11.30;6.85;;;12.90;74.10;;;;;;4946635;29;20279;-67
2021/05/13 05:24:22;;;;;;;9.52;6.70;;;13.00;74.10;;;;;;4946677;29;20040;-67
2021/05/13 05:26:48;;;;;;;12.13;7.13;;;13.00;74.00;;;;;;4948184;29;20031;-66
2021/05/13 05:29:13;;;;;;;10.88;7.07;;;13.10;74.10;;;;;;4946693;29;20323;-65
2021/05/13 05:31:38;;;;;;;11.00;6.90;;;13.00;74.00;;;;;;4946274;29;20110;-65
2021/05/13 05:34:04;;;;;;;10.18;7.00;;;13.00;74.00;;;;;;4946431;29;20031;-66
2021/05/13 05:36:30;;;;;;;8.45;6.38;;;13.00;74.00;;;;;;4946109;29;20075;-66
2021/05/13 05:38:56;;;;;;;10.90;6.82;;;13.00;74.00;;;;;;4947737;29;20083;-66
2021/05/13 05:41:24;;;;;;;9.55;7.07;;;13.00;74.00;;;;;;4945778;29;20313;-65
2021/05/13 05:43:50;;;;;;;8.55;6.63;;;13.00;74.10;;;;;;4946274;29;20043;-64
2021/05/13 05:46:15;;;;;;;9.45;6.70;;;13.00;74.10;;;;;;4946098;29;20043;-64
2021/05/13 05:48:41;;;;;;;8.95;6.30;;;13.10;74.20;;;;;;4946102;29;20035;-67
2021/05/13 05:51:06;;;;;;;9.70;6.70;;;13.10;74.10;;;;;;4947845;29;20039;-67
2021/05/13 05:53:32;;;;;;;12.52;7.35;;;13.10;74.10;;;;;;4945998;29;20047;-66
2021/05/13 05:55:57;;;;;;;8.63;6.57;;;13.10;74.20;;;;;;4945848;29;20039;-65
2021/05/13 05:58:23;;;;;;;10.20;6.78;;;13.20;74.20;;;;;;4945949;29;20046;-64
2021/05/13 06:00:48;;;;;;;11.13;7.15;;;13.20;74.20;;;;;;4945673;29;20227;-64
2021/05/13 06:03:14;;;;;;;10.43;7.00;;;13.30;74.30;;;;;;4947347;29;20051;-64
2021/05/13 06:05:40;;;;;;;10.05;7.25;;;13.30;74.20;;;;;;4946145;29;20051;-64
2021/05/13 06:08:05;;;;;;;13.15;7.72;;;13.30;74.20;;;;;;4945444;29;20120;-64
2021/05/13 06:10:31;;;;;;;10.40;7.13;;;13.30;74.20;;;;;;4945638;29;20369;-63
2021/05/13 06:12:57;;;;;;;11.23;7.97;;;13.30;74.20;;;;;;4945585;29;20036;-64
2021/05/13 06:15:23;;;;;;;13.38;7.65;;;13.30;74.10;;;;;;4945676;29;20031;-64
2021/05/13 06:17:48;;;;;;;11.27;7.38;;;13.30;74.20;;;;;;4947319;29;20035;-63
2021/05/13 06:20:18;;;;;;;12.32;8.20;;;13.40;74.00;;;;;;4946005;29;20047;-65
2021/05/13 06:22:44;;;;;;;12.60;8.20;;;13.30;74.20;;;;;;4945757;29;20044;-64
2021/05/13 06:25:10;;;;;;;14.70;8.50;;;13.40;74.30;;;;;;4945287;29;20107;-65
2021/05/13 06:27:35;;;;;;;13.15;8.05;;;13.40;74.30;;;;;;4945325;29;20028;-65
2021/05/13 06:30:01;;;;;;;12.23;7.90;;;13.40;74.40;;;;;;4947141;29;20383;-64
2021/05/13 06:32:26;;;;;;;13.20;8.45;;;13.40;74.40;;;;;;4945666;29;20046;-64
2021/05/13 06:34:52;;;;;;;16.42;8.65;;;13.50;74.40;;;;;;4945325;29;20036;-65
2021/05/13 06:37:17;;;;;;;11.85;8.50;;;13.50;74.50;;;;;;4945260;29;20111;-64
2021/05/13 06:39:43;;;;;;;10.70;7.63;;;13.50;74.60;;;;;;4945081;29;20039;-65
2021/05/13 06:42:09;;;;;;;12.07;8.18;;;13.50;74.40;;;;;;4947207;29;20215;-64
2021/05/13 06:44:34;;;;;;;11.85;8.05;;;13.50;74.60;;;;;;4945580;29;20087;-65
2021/05/13 06:47:00;;;;;;;11.68;7.97;;;13.40;74.10;;;;;;4945345;29;20036;-65
2021/05/13 06:49:26;;;;;;;12.48;8.43;;;13.50;74.20;;;;;;4945034;29;20059;-65
2021/05/13 06:51:51;;;;;;;11.45;7.88;;;13.60;74.20;;;;;;4944308;29;20043;-66
2021/05/13 06:54:17;;;;;;;14.48;8.82;;;13.60;73.90;;;;;;4947078;29;20268;-66
2021/05/13 06:56:42;;;;;;;11.30;7.78;;;13.70;74.50;;;;;;4944805;29;20043;-66
2021/05/13 06:59:08;;;;;;;12.05;7.78;;;13.70;74.20;;;;;;4944934;29;20274;-66
2021/05/13 07:01:35;;;;;;;12.88;8.20;;;13.80;74.40;;;;;;4928281;29;20235;-65
2021/05/13 07:04:04;;;;;;;13.30;7.85;;;13.80;74.30;;;;;;4928185;29;20055;-65
2021/05/13 07:06:30;;;;;;;9.75;7.45;;;13.80;74.30;;;;;;4945040;29;20103;-66
2021/05/13 07:08:56;;;;;;;12.10;7.60;;;13.90;74.30;;;;;;4946404;29;20035;-65
2021/05/13 07:11:21;;;;;;;12.38;7.55;;;13.80;73.90;;;;;;4928409;29;20044;-64
2021/05/13 07:13:47;;;;;;;10.77;7.28;;;14.00;73.90;;;;;;4944659;29;20075;-65
2021/05/13 07:16:13;;;;;;;12.60;7.78;;;14.10;73.60;;;;;;4944668;29;20256;-65
2021/05/13 07:18:38;;;;;;;12.18;7.72;;;14.10;73.70;;;;;;4944955;29;20031;-64
2021/05/13 07:21:04;;;;;;;12.73;7.90;;;14.20;73.70;;;;;;4946663;29;20083;-65
2021/05/13 07:23:29;;;;;;;10.68;8.60;;;14.20;73.50;;;;;;4945161;29;20215;-65
2021/05/13 07:25:55;;;;;;;12.43;8.63;;;14.20;73.50;;;;;;4928107;29;20043;-65
2021/05/13 07:28:21;;;;;;;12.57;7.90;;;14.30;74.00;;;;;;4944618;29;20058;-66
2021/05/13 07:30:47;;;;;;;13.73;7.95;;;14.40;73.50;;;;;;4944652;29;20231;-65
2021/05/13 07:33:12;;;;;;;12.15;7.80;;;14.50;73.40;;;;;;4929422;29;20059;-66
2021/05/13 07:35:37;;;;;;;17.02;7.32;;;14.50;73.30;;;;;;4945005;29;20107;-66
2021/05/13 07:38:03;;;;;;;13.25;7.65;;;14.60;72.90;;;;;;4944837;29;20099;-64
2021/05/13 07:40:29;;;;;;;11.82;7.70;;;14.60;73.10;;;;;;4912162;29;20331;-64
2021/05/13 07:42:55;;;;;;;14.65;7.60;;;14.70;72.50;;;;;;4944809;29;20039;-63
2021/05/13 07:45:20;;;;;;;11.40;7.30;;;14.80;72.80;;;;;;4944802;29;20265;-66
2021/05/13 07:47:46;;;;;;;13.32;6.70;;;14.90;72.30;;;;;;4946072;29;20046;-66
2021/05/13 07:50:13;;;;;;;11.75;7.43;;;14.90;72.00;;;;;;4944904;29;20050;-63
2021/05/13 07:52:39;;;;;;;13.52;7.65;;;14.90;71.70;;;;;;4944821;29;20355;-63
2021/05/13 07:55:05;;;;;;;12.60;7.30;;;15.00;71.60;;;;;;4944360;29;20335;-62
2021/05/13 07:57:31;;;;;;;11.88;7.18;;;15.10;71.80;;;;;;4944653;29;20047;-63
2021/05/13 07:59:56;;;;;;;14.35;7.95;;;15.10;71.50;;;;;;4946016;29;20066;-63
2021/05/13 08:02:22;;;;;;;10.75;7.53;;;15.00;71.10;;;;;;4944840;29;20116;-63
2021/05/13 08:04:48;;;;;;;13.05;6.85;;;15.10;71.40;;;;;;4947184;29;20075;-63
2021/05/13 08:07:20;;;;;;;10.50;6.85;;;15.10;71.30;;;;;;4947798;29;20035;-63
2021/05/13 08:09:46;;;;;;;12.48;7.30;;;15.10;71.40;;;;;;4947961;29;20040;-63
2021/05/13 08:12:11;;;;;;;12.50;7.65;;;15.10;71.50;;;;;;4949840;29;20032;-62
2021/05/13 08:14:37;;;;;;;12.55;7.30;;;15.10;71.80;;;;;;4948042;29;20106;-63
2021/05/13 08:17:02;;;;;;;10.85;7.38;;;15.10;71.80;;;;;;4947668;29;20402;-62
2021/05/13 08:19:28;;;;;;;10.77;7.30;;;15.20;71.50;;;;;;4947616;29;20259;-63
2021/05/13 08:21:53;;;;;;;9.60;6.25;;;15.10;71.50;;;;;;4947540;29;20091;-63
2021/05/13 08:24:19;;;;;;;13.45;6.65;;;15.10;70.90;;;;;;4948036;29;20040;-64
2021/05/13 08:26:44;;;;;;;11.45;6.75;;;15.10;71.20;;;;;;4949364;29;20032;-63
2021/05/13 08:29:10;;;;;;;10.45;6.60;;;15.00;71.70;;;;;;4947547;29;20043;-63
2021/05/13 08:31:36;;;;;;;12.27;6.53;;;15.00;71.20;;;;;;4947603;29;20040;-63
2021/05/13 08:34:01;;;;;;;12.20;6.40;;;15.00;71.10;;;;;;4947276;29;20050;-63
2021/05/13 08:36:27;;;;;;;9.93;5.90;;;15.00;70.40;;;;;;4947248;29;20036;-63
2021/05/13 08:38:52;;;;;;;10.05;6.03;;;15.00;70.70;;;;;;4948846;29;20035;-63
2021/05/13 08:41:18;;;;;;;10.23;6.38;;;15.10;71.10;;;;;;4947592;29;20036;-63
2021/05/13 08:43:49;;;;;;;10.02;6.65;;;15.10;70.60;;;;;;4947122;29;20083;-64
2021/05/13 08:46:16;;;;;;;8.82;5.90;;;15.20;70.70;;;;;;4931202;29;20038;-63
2021/05/13 08:48:41;;;;;;;8.02;6.00;;;15.20;70.50;;;;;;4947278;29;20323;-63
2021/05/13 08:51:07;;;;;;;8.85;6.07;;;15.30;70.00;;;;;;4949199;29;20035;-63
2021/05/13 08:53:32;;;;;;;12.25;6.05;;;15.30;69.70;;;;;;4930588;29;20036;-63
2021/05/13 08:55:58;;;;;;;12.93;6.10;;;15.30;69.60;;;;;;4929540;29;20066;-63
2021/05/13 08:58:23;;;;;;;14.00;5.97;;;15.40;69.40;;;;;;4946989;29;20044;-64
2021/05/13 09:00:53;;;;;;;10.60;6.20;;;15.50;69.40;;;;;;4946781;29;20051;-63
2021/05/13 09:03:35;;;;;;;9.10;5.68;;;15.40;69.20;;;;;;4946544;29;20040;-64
2021/05/13 09:06:01;;;;;;;10.88;5.43;;;15.50;69.30;;;;;;4948864;29;20075;-64
2021/05/13 09:08:27;;;;;;;10.68;5.45;;;15.50;69.10;;;;;;4947072;29;20184;-63
2021/05/13 09:10:52;;;;;;;11.23;5.50;;;15.50;69.20;;;;;;4946682;29;20058;-64
2021/05/13 09:13:28;;;;;;;9.50;5.90;;;15.40;69.30;;;;;;4929415;29;20231;-63
2021/05/13 09:15:53;;;;;;;9.15;5.57;;;15.50;69.60;;;;;;4945475;29;20054;-64
2021/05/13 09:18:29;;;;;;;8.82;5.25;;;15.50;69.40;;;;;;4930251;29;20031;-64
2021/05/13 09:21:03;;;;;;;8.40;5.15;;;15.50;69.10;;;;;;4948026;29;20223;-65
2021/05/13 09:23:28;;;;;;;8.50;5.47;;;15.50;69.20;;;;;;4946921;29;20107;-64
2021/05/13 09:26:13;;;;;;;10.52;5.22;;;15.50;69.20;;;;;;4946271;29;20040;-65
2021/05/13 09:28:39;;;;;;;12.05;4.90;;;15.60;69.10;;;;;;4946659;29;20042;-65
2021/05/13 09:31:04;;;;;;;7.50;4.80;;;15.60;69.10;;;;;;4946056;29;20039;-65
2021/05/13 09:33:31;;;;;;;9.32;4.72;;;15.70;68.80;;;;;;4946286;29;20164;-65
2021/05/13 09:35:57;;;;;;;8.02;4.68;;;15.60;68.20;;;;;;4947610;29;20067;-65
2021/05/13 09:38:33;;;;;;;7.68;4.80;;;15.60;68.10;;;;;;4929688;29;20095;-63
2021/05/13 09:41:00;;;;;;;8.38;5.10;;;15.60;68.30;;;;;;4946027;29;20039;-64
2021/05/13 09:43:29;;;;;;;6.55;4.10;;;15.60;68.50;;;;;;4946043;29;20094;-64
2021/05/13 09:45:56;;;;;;;7.93;4.30;;;15.60;68.90;;;;;;4928945;29;20035;-65
2021/05/13 09:48:31;;;;;;;5.38;3.80;;;15.40;68.10;;;;;;4945903;29;20046;-64
2021/05/13 09:51:23;;;;;;;6.82;4.47;;;15.50;68.50;;;;;;4947680;29;20047;-64
2021/05/13 09:54:15;;;;;;;8.57;5.03;;;15.60;69.00;;;;;;4946521;29;20296;-64
2021/05/13 09:56:49;;;;;;;10.77;5.05;;;15.70;69.00;;;;;;4945727;29;20036;-65
2021/05/13 09:59:30;;;;;;;6.72;4.32;;;15.80;68.90;;;;;;4945716;29;20035;-66
2021/05/13 10:01:58;;;;;;;;;;;15.80;69.20;;;;;;4930211;29;20044;-64
2021/05/13 10:04:25;;;;;;;7.13;4.07;;;15.80;68.50;;;;;;4945652;29;20238;-65
2021/05/13 10:06:50;;;;;;;7.07;4.05;;;15.80;68.40;;;;;;4945697;29;20108;-65
2021/05/13 10:09:17;;;;;;;10.05;4.72;;;15.80;67.90;;;;;;4947521;29;20040;-64
2021/05/13 10:11:54;;;;;;;9.48;4.68;;;15.80;67.70;;;;;;4946054;29;20070;-63
2021/05/13 10:14:20;;;;;;;7.80;4.68;;;15.70;67.60;;;;;;4945305;29;20063;-63
2021/05/13 10:16:47;;;;;;;6.57;4.75;;;15.70;67.70;;;;;;4945329;29;20036;-66
2021/05/13 10:19:14;;;;;;;6.88;4.40;;;15.60;68.10;;;;;;4928807;29;20043;-64
2021/05/13 10:21:41;;;;;;;10.52;4.50;;;15.50;68.50;;;;;;4928453;29;20040;-64
2021/05/13 10:24:07;;;;;;;8.90;4.78;;;15.50;68.90;;;;;;4930462;29;20043;-63
2021/05/13 10:26:33;;;;;;;6.40;3.97;;;15.30;69.10;;;;;;4928816;29;20088;-63
2021/05/13 10:28:59;;;;;;;5.05;3.28;;;15.30;68.80;;;;;;4945356;29;20378;-63
2021/05/13 10:31:37;;;;;;;3.53;2.90;;;15.30;69.00;;;;;;4938512;29;20051;-65
2021/05/13 10:34:03;;;;;;;6.20;2.60;;;15.30;68.80;;;;;;4947074;29;20219;-65
2021/05/13 10:36:28;;;;;;;5.43;3.17;;;15.30;69.10;;;;;;4945394;29;20046;-64
2021/05/13 10:38:56;;;;;;;5.50;3.03;;;15.30;69.10;;;;;;4945274;29;20040;-66
2021/05/13 10:41:28;;;;;;;5.00;3.15;;;15.40;69.20;;;;;;4945143;29;20327;-67
2021/05/13 10:43:57;;;;;;;5.22;3.28;;;15.50;69.30;;;;;;4945346;29;20039;-65
2021/05/13 10:46:29;;;;;;;4.03;2.70;;;15.50;69.50;;;;;;4930329;29;20362;-65
2021/05/13 10:49:14;;;;;;;7.43;3.08;;;15.50;69.50;;;;;;4945962;29;20035;-68
2021/05/13 10:51:39;;;;;;;6.60;2.90;;;15.60;69.40;;;;;;4945224;29;20036;-64
2021/05/13 10:54:05;;;;;;;7.55;3.80;;;15.60;69.20;;;;;;4927972;29;20095;-67
2021/05/13 10:56:36;;;;;;;6.65;3.70;;;15.60;69.30;;;;;;4927974;29;20205;-66
2021/05/13 10:59:07;;;;;;;7.88;3.80;;;15.70;69.30;;;;;;4944537;29;20031;-67
2021/05/13 11:01:33;;;;;;;6.53;3.40;;;15.70;69.50;;;;;;4945156;29;20043;-67
2021/05/13 11:04:21;;;;;;;6.45;3.78;;;15.70;69.50;;;;;;4946720;29;20030;-65
2021/05/13 11:06:59;;;;;;;6.82;3.78;;;15.80;69.40;;;;;;4945334;29;20327;-66
2021/05/13 11:09:37;;;;;;;7.20;4.22;;;15.70;69.00;;;;;;4944740;29;20083;-66
2021/05/13 11:12:09;;;;;;;9.77;4.25;;;15.70;69.30;;;;;;4944588;29;20362;-66
2021/05/13 11:14:54;;;;;;;7.93;4.25;;;15.80;69.40;;;;;;4944683;29;20036;-66
2021/05/13 11:17:40;;;;;;;9.20;4.93;;;15.80;69.70;;;;;;4930974;29;20036;-66
2021/05/13 11:20:24;;;;;;;7.63;4.40;;;15.70;69.60;;;;;;4944647;29;20058;-66
2021/05/13 11:23:12;;;;;;;8.75;4.20;;;15.80;69.50;;;;;;4944701;29;20053;-67
2021/05/13 11:25:45;;;;;;;6.15;3.38;;;15.80;69.30;;;;;;4944940;29;20095;-66
2021/05/13 11:28:22;;;;;;;7.55;2.85;;;15.80;69.30;;;;;;4946779;29;20166;-67
2021/05/13 11:30:48;;;;;;;5.43;2.55;;;15.80;68.80;;;;;;4945121;29;20044;-67
2021/05/13 11:33:14;;;;;;;6.05;2.60;;;15.70;68.30;;;;;;4944847;29;20043;-67
2021/05/13 11:35:39;;;;;;;6.18;2.55;;;15.70;68.50;;;;;;4944748;29;20054;-67
2021/05/13 11:38:22;;;;;;;3.95;2.47;;;15.70;68.40;;;;;;4945081;29;20035;-67
2021/05/13 11:40:51;;;;;;;7.47;3.08;;;15.70;68.30;;;;;;4948335;29;20035;-67
2021/05/13 11:43:33;;;;;;;4.30;2.65;;;15.70;68.70;;;;;;4949897;29;20070;-67
2021/05/13 11:46:09;;;;;;;5.78;2.80;;;15.60;68.20;;;;;;4949150;29;20091;-67
2021/05/13 11:48:38;;;;;;;3.80;2.65;;;15.50;68.30;;;;;;4948651;29;20040;-67
2021/05/13 11:51:23;;;;;;;5.15;3.03;;;15.40;68.50;;;;;;4948376;29;20102;-67
2021/05/13 11:53:49;;;;;;;6.93;3.20;;;15.40;68.90;;;;;;4947869;29;20107;-67
2021/05/13 11:56:16;;;;;;;7.05;3.47;;;15.40;69.20;;;;;;4948027;29;20065;-71
2021/05/13 11:58:48;;;;;;;8.70;3.63;;;15.40;69.80;;;;;;4947718;29;20124;-70
2021/05/13 12:01:24;;;;;;;6.40;3.40;;;15.30;70.30;;;;;;4949625;29;20054;-69
2021/05/13 12:03:51;;;;;;;4.57;3.22;;;15.30;70.30;;;;;;4948436;29;20036;-67
2021/05/13 12:06:16;;;;;;;6.63;3.50;;;15.30;70.40;;;;;;4931327;29;20083;-72
2021/05/13 12:08:42;;;;;;;5.47;3.20;;;15.30;70.40;;;;;;4948018;29;20044;-68
2021/05/13 12:11:27;;;;;;;7.35;3.13;;;15.20;70.20;;;;;;4947829;29;20044;-68
2021/05/13 12:13:57;;;;;;;4.10;2.78;;;15.20;70.10;;;;;;4930981;29;20080;-68
2021/05/13 12:16:24;;;;;;;4.22;2.53;;;15.10;70.00;;;;;;4949684;29;20031;-69
2021/05/13 12:18:56;;;;;;;3.78;3.15;;;15.10;69.60;;;;;;4947630;29;20039;-67
2021/05/13 12:21:22;;;;;;;3.83;2.90;;;15.00;70.50;;;;;;4931716;29;20032;-70
2021/05/13 12:23:48;;;;;;;5.47;3.08;;;15.10;70.80;;;;;;4947745;29;20039;-71
2021/05/13 12:26:19;;;;;;;4.50;3.47;;;15.10;71.10;;;;;;4947694;29;20095;-71
2021/05/13 12:28:45;;;;;;;5.68;3.63;;;15.10;71.10;;;;;;4931402;29;20042;-73
2021/05/13 12:31:28;;;;;;;6.90;3.40;;;15.10;71.30;;;;;;4949473;29;20094;-69
2021/05/13 12:33:54;;;;;;;3.90;3.08;;;15.10;71.50;;;;;;4933620;29;20057;-71
2021/05/13 12:36:19;;;;;;;7.10;3.72;;;15.10;71.50;;;;;;4947542;29;20032;-72
2021/05/13 12:38:45;;;;;;;9.13;3.58;;;15.20;71.80;;;;;;4947696;29;20335;-72
2021/05/13 12:41:16;;;;;;;6.32;3.65;;;15.20;71.70;;;;;;4947227;29;20037;-70
2021/05/13 12:43:42;;;;;;;6.47;3.60;;;15.20;71.50;;;;;;4947378;29;20040;-70
2021/05/13 12:46:21;;;;;;;5.32;3.28;;;15.20;71.50;;;;;;4949028;29;20027;-69
2021/05/13 12:48:47;;;;;;;5.40;3.40;;;15.30;71.70;;;;;;4948137;29;20228;-68